createdAt,value
2023-02-13T00:01:38.611Z,79.52
2023-02-13T00:06:37.413Z,80.36
2023-02-13T00:11:36.224Z,80.12
2023-02-13T00:16:34.921Z,80.11
2023-02-13T00:21:33.672Z,79.66
2023-02-13T00:26:32.432Z,80.60
2023-02-13T00:31:31.294Z,82.02
2023-02-13T00:36:30.478Z,81.37
2023-02-13T00:41:29.295Z,82.70
2023-02-13T00:46:28.125Z,80.99
2023-02-13T00:51:27.073Z,80.45
2023-02-13T00:56:41.486Z,81.20
2023-02-13T01:01:40.358Z,80.21
2023-02-13T01:06:39.371Z,80.64
2023-02-13T01:11:39.860Z,79.82
2023-02-13T01:16:39.160Z,79.55
2023-02-13T01:21:38.002Z,80.40
2023-02-13T01:26:37.360Z,80.73
2023-02-13T01:31:36.436Z,79.59
2023-02-13T01:36:47.136Z,80.89
2023-02-13T01:41:46.680Z,79.54
2023-02-13T01:46:45.723Z,78.89
2023-02-13T01:51:46.403Z,81.83
2023-02-13T01:56:57.135Z,81.32
2023-02-13T02:01:57.330Z,80.24
2023-02-13T02:06:59.954Z,80.62
2023-02-13T02:12:12.551Z,80.82
2023-02-13T02:17:13.684Z,80.76
2023-02-13T02:22:28.156Z,80.14
2023-02-13T02:27:45.248Z,79.67
2023-02-13T02:33:15.988Z,80.86
2023-02-13T02:38:28.431Z,81.16
2023-02-13T02:43:34.157Z,80.45
2023-02-13T02:49:20.611Z,81.56
2023-02-13T02:54:53.413Z,80.61
2023-02-13T03:00:12.110Z,79.16
2023-02-13T03:05:44.447Z,80.83
2023-02-13T03:11:02.002Z,79.39
2023-02-13T03:16:20.099Z,79.21
2023-02-13T03:21:59.071Z,78.13
2023-02-13T03:27:16.618Z,78.64
2023-02-13T03:32:31.465Z,78.09
2023-02-13T03:37:54.752Z,77.61
2023-02-13T03:43:20.612Z,76.89
2023-02-13T03:49:07.912Z,78.63
2023-02-13T03:54:46.729Z,78.04
2023-02-13T03:59:45.914Z,77.31
2023-02-13T04:04:58.906Z,78.17
2023-02-13T04:10:01.482Z,79.30
2023-02-13T04:15:08.959Z,79.17
2023-02-13T04:20:09.441Z,79.10
2023-02-13T04:25:08.530Z,78.75
2023-02-13T04:30:08.388Z,79.22
2023-02-13T04:35:07.311Z,78.64
2023-02-13T04:40:06.852Z,79.69
2023-02-13T04:45:05.810Z,79.60
2023-02-13T04:50:05.131Z,80.76
2023-02-13T04:55:04.139Z,80.32
2023-02-13T05:00:05.897Z,80.14
2023-02-13T05:05:04.864Z,81.02
2023-02-13T05:10:03.818Z,81.31
2023-02-13T05:15:02.962Z,81.90
2023-02-13T05:20:02.125Z,82.70
2023-02-13T05:25:00.936Z,81.77
2023-02-13T05:30:00.419Z,78.01
2023-02-13T05:34:59.239Z,67.37
2023-02-13T05:39:58.019Z,64.69
2023-02-13T05:44:56.828Z,72.42
2023-02-13T05:49:55.569Z,76.79
2023-02-13T05:54:54.425Z,79.33
2023-02-13T05:59:53.448Z,81.15
2023-02-13T06:04:52.398Z,80.39
2023-02-13T06:09:51.251Z,80.89
2023-02-13T06:14:50.000Z,81.11
2023-02-13T06:19:49.054Z,81.29
2023-02-13T06:24:47.994Z,82.63
2023-02-13T06:29:46.838Z,82.27
2023-02-13T06:34:45.708Z,82.12
2023-02-13T06:39:44.375Z,82.21
2023-02-13T06:44:43.336Z,81.85
2023-02-13T06:49:42.343Z,82.90
2023-02-13T06:54:47.786Z,83.27
2023-02-13T06:59:47.107Z,83.50
2023-02-13T07:04:45.994Z,82.03
2023-02-13T07:09:44.833Z,81.92
2023-02-13T07:14:43.739Z,83.65
2023-02-13T07:19:42.901Z,83.43
2023-02-13T07:24:41.877Z,83.48
2023-02-13T07:29:40.835Z,83.15
2023-02-13T07:34:49.172Z,83.75
2023-02-13T07:39:54.841Z,83.65
2023-02-13T07:44:53.764Z,82.22
2023-02-13T07:49:52.803Z,82.36
2023-02-13T07:54:51.676Z,82.25
2023-02-13T07:59:50.713Z,82.86
2023-02-13T08:04:49.457Z,83.68
2023-02-13T08:10:07.740Z,82.26
2023-02-13T08:15:07.474Z,82.66
2023-02-13T08:20:10.697Z,82.60
2023-02-13T08:25:10.257Z,82.11
2023-02-13T08:30:09.907Z,83.00
2023-02-13T08:35:08.964Z,82.97
2023-02-13T08:40:11.366Z,82.59
2023-02-13T08:45:11.930Z,81.44
2023-02-13T08:50:11.361Z,82.07
2023-02-13T08:55:10.539Z,82.82
2023-02-13T09:00:09.788Z,82.18
2023-02-13T09:05:09.084Z,81.04
2023-02-13T09:10:08.247Z,80.64
2023-02-13T09:15:07.429Z,80.15
2023-02-13T09:20:07.154Z,80.38
2023-02-13T09:25:07.541Z,80.25
2023-02-13T09:30:10.779Z,80.48
2023-02-13T09:35:09.710Z,80.75
2023-02-13T09:40:24.861Z,80.50
2023-02-13T09:45:23.755Z,81.42
2023-02-13T09:50:28.280Z,79.92
2023-02-13T09:55:37.510Z,80.32
2023-02-13T10:00:42.424Z,78.63
2023-02-13T10:05:47.503Z,77.78
2023-02-13T10:11:00.442Z,77.03
2023-02-13T10:16:21.340Z,76.15
2023-02-13T10:21:24.827Z,76.47
2023-02-13T10:26:45.676Z,76.52
2023-02-13T10:31:49.457Z,76.52
2023-02-13T10:36:48.615Z,75.18
2023-02-13T10:42:23.036Z,74.23
2023-02-13T10:47:44.650Z,73.56
2023-02-13T10:53:05.360Z,75.02
2023-02-13T10:58:22.633Z,72.22
2023-02-13T11:03:26.991Z,72.43
2023-02-13T11:08:47.804Z,73.02
2023-02-13T11:13:46.735Z,73.71
2023-02-13T11:18:50.806Z,74.16
2023-02-13T11:23:54.724Z,73.39
2023-02-13T11:29:01.209Z,73.57
2023-02-13T11:34:18.817Z,72.74
2023-02-13T11:39:27.142Z,73.04
2023-02-13T11:44:29.816Z,72.62
2023-02-13T11:49:34.564Z,72.23
2023-02-13T11:54:44.228Z,72.01
2023-02-13T11:59:44.951Z,72.29
2023-02-13T12:04:44.056Z,69.94
2023-02-13T12:09:47.626Z,70.00
2023-02-13T12:14:46.997Z,69.42
2023-02-13T12:19:49.845Z,68.83
2023-02-13T12:24:54.986Z,69.14
2023-02-13T12:30:14.445Z,68.81
2023-02-13T12:35:31.912Z,68.81
2023-02-13T12:40:30.772Z,67.71
2023-02-13T12:45:35.709Z,69.06
2023-02-13T12:51:08.234Z,67.13
2023-02-13T12:56:17.899Z,67.17
2023-02-13T13:01:35.745Z,67.85
2023-02-13T13:07:02.192Z,68.63
2023-02-13T13:12:35.344Z,67.10
2023-02-13T13:18:21.944Z,68.28
2023-02-13T13:23:29.921Z,67.72
2023-02-13T13:28:35.333Z,67.93
2023-02-13T13:33:36.064Z,68.76
2023-02-13T13:38:52.365Z,68.04
2023-02-13T13:44:04.025Z,69.01
2023-02-13T13:49:34.607Z,68.11
2023-02-13T13:54:35.179Z,68.18
2023-02-13T13:59:34.124Z,67.27
2023-02-13T14:04:33.155Z,66.26
2023-02-13T14:09:41.288Z,66.40
2023-02-13T14:14:45.311Z,67.25
2023-02-13T14:19:52.713Z,67.55
2023-02-13T14:24:57.364Z,67.32
2023-02-13T14:29:57.382Z,67.50
2023-02-13T14:34:59.981Z,69.58
2023-02-13T14:40:20.470Z,69.31
2023-02-13T14:45:28.922Z,70.21
2023-02-13T14:50:32.653Z,70.23
2023-02-13T14:55:39.644Z,69.41
2023-02-13T15:00:46.400Z,70.42
2023-02-13T15:05:51.294Z,71.09
2023-02-13T15:10:54.029Z,71.28
2023-02-13T15:16:00.078Z,71.52
2023-02-13T15:21:01.347Z,71.57
2023-02-13T15:26:00.940Z,71.95
2023-02-13T15:31:04.443Z,72.58
2023-02-13T15:36:05.645Z,73.49
2023-02-13T15:41:09.536Z,73.51
2023-02-13T15:46:20.604Z,74.31
2023-02-13T15:51:30.871Z,74.34
2023-02-13T15:56:31.160Z,74.57
2023-02-13T16:01:31.349Z,73.79
2023-02-13T16:06:30.808Z,74.45
2023-02-13T16:11:37.212Z,74.42
2023-02-13T16:17:00.690Z,74.09
2023-02-13T16:22:04.972Z,74.77
2023-02-13T16:27:04.007Z,74.88
2023-02-13T16:32:07.576Z,80.22
2023-02-13T16:37:31.935Z,69.75
2023-02-13T16:42:30.734Z,72.57
2023-02-13T16:47:29.616Z,73.50
2023-02-13T16:52:28.558Z,74.32
2023-02-13T16:58:23.453Z,73.73
2023-02-13T17:03:22.228Z,74.40
2023-02-13T17:08:21.688Z,73.31
2023-02-13T17:13:25.206Z,72.94
2023-02-13T17:18:23.896Z,73.62
2023-02-13T17:23:24.765Z,73.85
2023-02-13T17:28:27.049Z,73.46
2023-02-13T17:33:31.941Z,73.76
2023-02-13T17:38:30.679Z,75.19
2023-02-13T17:43:30.090Z,74.28
2023-02-13T17:48:30.935Z,73.17
2023-02-13T17:53:30.658Z,73.60
2023-02-13T17:58:29.639Z,74.56
2023-02-13T18:03:28.801Z,74.62
2023-02-13T18:08:27.677Z,74.13
2023-02-13T18:13:26.730Z,73.96
2023-02-13T18:18:25.453Z,72.88
2023-02-13T18:23:24.469Z,71.76
2023-02-13T18:28:23.198Z,72.87
2023-02-13T18:33:22.355Z,72.84
2023-02-13T18:38:21.083Z,74.39
2023-02-13T18:43:20.007Z,74.75
2023-02-13T18:48:19.137Z,74.73
2023-02-13T18:53:17.970Z,74.59
2023-02-13T18:58:17.232Z,76.11
2023-02-13T19:03:17.482Z,75.73
2023-02-13T19:08:16.315Z,75.95
2023-02-13T19:13:15.268Z,76.72
2023-02-13T19:18:13.935Z,76.34
2023-02-13T19:23:12.868Z,77.03
2023-02-13T19:28:12.116Z,75.55
2023-02-13T19:33:11.014Z,75.36
2023-02-13T19:38:10.318Z,73.89
2023-02-13T19:43:09.233Z,74.54
2023-02-13T19:48:08.367Z,73.37
2023-02-13T19:53:07.676Z,73.04
2023-02-13T19:58:07.619Z,71.96
2023-02-13T20:03:06.759Z,72.20
2023-02-13T20:08:05.687Z,72.72
2023-02-13T20:13:04.819Z,74.17
2023-02-13T20:18:04.164Z,73.31
2023-02-13T20:23:03.123Z,73.54
2023-02-13T20:28:01.971Z,73.92
2023-02-13T20:33:00.893Z,74.07
2023-02-13T20:37:59.669Z,74.61
2023-02-13T20:42:58.719Z,74.20
2023-02-13T20:47:57.508Z,73.83
2023-02-13T20:52:56.379Z,73.27
2023-02-13T20:57:55.201Z,72.46
2023-02-13T21:02:54.010Z,74.97
2023-02-13T21:07:52.873Z,73.18
2023-02-13T21:12:51.753Z,72.70
2023-02-13T21:17:50.688Z,73.80
2023-02-13T21:22:49.518Z,72.76
2023-02-13T21:27:48.273Z,72.77
2023-02-13T21:32:47.281Z,73.23
2023-02-13T21:37:46.063Z,74.25
2023-02-13T21:42:45.037Z,74.23
2023-02-13T21:47:45.737Z,72.47
2023-02-13T21:52:44.489Z,71.81
2023-02-13T21:57:43.468Z,71.73
2023-02-13T22:02:42.348Z,72.29
2023-02-13T22:07:59.767Z,71.33
2023-02-13T22:12:58.658Z,73.04
2023-02-13T22:17:57.673Z,72.00
2023-02-13T22:22:56.414Z,71.81
2023-02-13T22:27:55.356Z,72.82
2023-02-13T22:32:54.286Z,75.38
2023-02-13T22:37:52.993Z,73.63
2023-02-13T22:42:52.308Z,74.20
2023-02-13T22:47:51.146Z,72.03
2023-02-13T22:52:49.894Z,72.32
2023-02-13T22:57:53.976Z,73.22
2023-02-13T23:02:53.093Z,73.39
2023-02-13T23:07:51.905Z,73.05
2023-02-13T23:12:50.644Z,71.96
2023-02-13T23:18:07.925Z,72.73
2023-02-13T23:23:06.819Z,74.16
2023-02-13T23:28:06.314Z,73.51
2023-02-13T23:33:05.327Z,73.67
2023-02-13T23:38:04.282Z,74.29
2023-02-13T23:43:03.246Z,75.26
2023-02-13T23:48:02.219Z,74.18
2023-02-13T23:53:01.471Z,74.80
2023-02-13T23:58:00.623Z,75.01
